createdAt,value
2018-07-14T00:01:51.003Z,11.80
2018-07-14T00:04:20.175Z,11.27
2018-07-14T00:06:49.352Z,10.27
2018-07-14T00:09:18.561Z,10.73
2018-07-14T00:11:47.176Z,9.83
2018-07-14T00:14:16.364Z,10.93
2018-07-14T00:16:45.551Z,10.57
2018-07-14T00:19:14.810Z,10.57
2018-07-14T00:21:44.025Z,10.37
2018-07-14T00:24:13.257Z,10.70
2018-07-14T00:26:42.508Z,11.30
2018-07-14T00:29:11.693Z,11.20
2018-07-14T00:31:40.904Z,10.67
2018-07-14T00:34:10.107Z,10.73
2018-07-14T00:36:39.256Z,10.67
2018-07-14T00:39:08.470Z,10.40
2018-07-14T00:41:37.710Z,11.37
2018-07-14T00:44:06.915Z,10.70
2018-07-14T00:46:36.298Z,11.17
2018-07-14T00:49:05.708Z,11.47
2018-07-14T00:51:35.171Z,11.63
2018-07-14T00:54:04.371Z,11.43
2018-07-14T00:56:33.566Z,10.37
2018-07-14T00:59:02.266Z,10.43
2018-07-14T01:01:31.454Z,9.97
2018-07-14T01:04:00.676Z,10.50
2018-07-14T01:06:29.891Z,10.60
2018-07-14T01:08:59.095Z,10.13
2018-07-14T01:11:28.352Z,10.27
2018-07-14T01:13:57.545Z,10.20
2018-07-14T01:16:26.770Z,11.27
2018-07-14T01:18:55.963Z,10.53
2018-07-14T01:21:25.084Z,10.90
2018-07-14T01:23:54.256Z,11.40
2018-07-14T01:26:23.528Z,10.37
2018-07-14T01:28:52.736Z,10.47
2018-07-14T01:31:22.003Z,10.23
2018-07-14T01:33:51.219Z,11.80
2018-07-14T01:36:20.481Z,12.13
2018-07-14T01:38:49.728Z,11.57
2018-07-14T01:41:18.974Z,11.20
2018-07-14T01:43:48.196Z,11.63
2018-07-14T01:46:17.443Z,12.10
2018-07-14T01:48:46.644Z,11.63
2018-07-14T01:51:15.936Z,11.30
2018-07-14T01:53:45.146Z,11.60
2018-07-14T01:56:14.429Z,10.90
2018-07-14T01:58:43.631Z,11.60
2018-07-14T02:01:12.394Z,11.53
2018-07-14T02:03:41.635Z,10.67
2018-07-14T02:06:10.839Z,11.80
2018-07-14T02:08:40.251Z,11.93
2018-07-14T02:11:09.955Z,11.77
2018-07-14T02:13:39.173Z,11.97
2018-07-14T02:16:08.491Z,11.33
2018-07-14T02:18:37.734Z,12.13
2018-07-14T02:21:07.275Z,11.77
2018-07-14T02:23:36.462Z,12.07
2018-07-14T02:26:05.768Z,12.73
2018-07-14T02:28:34.981Z,11.80
2018-07-14T02:31:04.228Z,12.00
2018-07-14T02:33:33.399Z,11.50
2018-07-14T02:36:02.636Z,11.57
2018-07-14T02:38:31.917Z,11.70
2018-07-14T02:41:01.159Z,12.70
2018-07-14T02:43:30.443Z,12.70
2018-07-14T02:45:59.667Z,12.13
2018-07-14T02:48:30.108Z,12.50
2018-07-14T02:50:58.757Z,11.60
2018-07-14T02:53:27.950Z,12.23
2018-07-14T02:55:57.158Z,11.00
2018-07-14T02:58:26.355Z,11.67
2018-07-14T03:00:55.536Z,11.90
2018-07-14T03:03:24.724Z,12.10
2018-07-14T03:05:53.960Z,12.43
2018-07-14T03:08:23.183Z,12.73
2018-07-14T03:10:52.379Z,12.40
2018-07-14T03:13:21.632Z,12.00
2018-07-14T03:15:51.311Z,11.97
2018-07-14T03:18:20.495Z,12.33
2018-07-14T03:20:55.458Z,12.43
2018-07-14T03:23:24.593Z,11.77
2018-07-14T03:25:53.875Z,12.47
2018-07-14T03:28:23.175Z,12.60
2018-07-14T03:30:52.305Z,11.73
2018-07-14T03:33:21.626Z,11.70
2018-07-14T03:35:50.807Z,12.20
2018-07-14T03:38:20.055Z,12.40
2018-07-14T03:40:49.273Z,11.77
2018-07-14T03:43:18.484Z,11.93
2018-07-14T03:45:47.659Z,11.97
2018-07-14T03:48:16.835Z,11.63
2018-07-14T03:50:45.964Z,12.37
2018-07-14T03:53:15.192Z,12.83
2018-07-14T03:55:44.387Z,12.70
2018-07-14T03:58:13.617Z,13.03
2018-07-14T04:00:42.750Z,14.07
2018-07-14T04:03:12.071Z,13.67
2018-07-14T04:05:41.236Z,13.63
2018-07-14T04:08:10.454Z,13.40
2018-07-14T04:10:39.784Z,13.47
2018-07-14T04:13:09.031Z,14.70
2018-07-14T04:15:38.119Z,13.37
2018-07-14T04:18:07.519Z,13.73
2018-07-14T04:20:37.618Z,14.07
2018-07-14T04:23:06.851Z,14.20
2018-07-14T04:25:36.127Z,13.50
2018-07-14T04:28:05.324Z,13.70
2018-07-14T04:30:34.490Z,13.73
2018-07-14T04:33:03.737Z,14.07
2018-07-14T04:35:33.167Z,13.87
2018-07-14T04:38:02.336Z,14.70
2018-07-14T04:40:31.500Z,14.00
2018-07-14T04:43:00.712Z,13.90
2018-07-14T04:45:29.882Z,14.27
2018-07-14T04:47:59.058Z,14.03
2018-07-14T04:50:28.263Z,13.80
2018-07-14T04:52:57.512Z,14.40
2018-07-14T04:55:26.691Z,13.33
2018-07-14T05:00:54.199Z,13.37
2018-07-14T05:03:23.448Z,14.17
2018-07-14T05:05:52.676Z,14.60
2018-07-14T05:08:22.207Z,14.43
2018-07-14T05:10:51.373Z,14.00
2018-07-14T05:13:20.777Z,14.00
2018-07-14T05:15:49.919Z,14.27
2018-07-14T05:18:19.497Z,13.33
2018-07-14T05:20:48.821Z,13.83
2018-07-14T05:23:21.631Z,14.77
2018-07-14T05:25:50.366Z,14.93
2018-07-14T05:28:19.751Z,14.17
2018-07-14T05:30:48.991Z,15.17
2018-07-14T05:33:18.195Z,15.37
2018-07-14T05:35:47.364Z,15.77
2018-07-14T05:38:16.615Z,14.37
2018-07-14T05:40:45.744Z,13.73
2018-07-14T05:43:14.972Z,13.93
2018-07-14T05:45:44.115Z,13.97
2018-07-14T05:48:13.370Z,13.50
2018-07-14T05:50:42.594Z,12.73
2018-07-14T05:53:11.796Z,12.57
2018-07-14T05:55:41.002Z,11.53
2018-07-14T05:58:10.280Z,11.77
2018-07-14T06:00:39.519Z,11.10
2018-07-14T06:03:08.728Z,11.77
2018-07-14T06:05:37.945Z,10.87
2018-07-14T06:08:07.083Z,9.67
2018-07-14T06:10:36.347Z,11.43
2018-07-14T06:13:07.590Z,10.13
2018-07-14T06:15:36.945Z,11.40
2018-07-14T06:18:06.186Z,11.10
2018-07-14T06:20:38.774Z,10.23
2018-07-14T06:23:08.087Z,10.63
2018-07-14T06:25:37.328Z,10.13
2018-07-14T06:28:07.711Z,10.70
2018-07-14T06:30:37.098Z,11.10
2018-07-14T06:33:07.258Z,9.90
2018-07-14T06:35:36.500Z,9.70
2018-07-14T06:38:05.782Z,10.77
2018-07-14T06:40:35.023Z,10.67
2018-07-14T06:43:05.400Z,10.63
2018-07-14T06:45:34.601Z,9.83
2018-07-14T06:48:03.851Z,9.97
2018-07-14T06:50:33.323Z,10.07
2018-07-14T06:53:02.528Z,9.80
2018-07-14T06:55:31.820Z,9.87
2018-07-14T06:58:00.963Z,10.03
2018-07-14T07:00:30.287Z,9.97
2018-07-14T07:02:59.579Z,10.43
2018-07-14T07:05:28.793Z,9.53
2018-07-14T07:07:58.024Z,9.20
2018-07-14T07:10:27.239Z,9.17
2018-07-14T07:12:57.600Z,9.50
2018-07-14T07:15:26.898Z,9.50
2018-07-14T07:17:56.167Z,10.07
2018-07-14T07:20:25.429Z,9.87
2018-07-14T07:22:54.632Z,10.17
2018-07-14T07:25:23.940Z,10.90
2018-07-14T07:27:53.124Z,10.00
2018-07-14T07:30:22.583Z,9.83
2018-07-14T07:32:51.290Z,9.40
2018-07-14T07:35:20.508Z,10.47
2018-07-14T07:37:50.075Z,10.27
2018-07-14T07:40:19.395Z,10.10
2018-07-14T07:42:48.811Z,9.90
2018-07-14T07:45:18.038Z,9.37
2018-07-14T07:47:47.294Z,8.87
2018-07-14T07:50:16.483Z,8.93
2018-07-14T07:52:45.727Z,8.67
2018-07-14T07:55:14.943Z,8.60
2018-07-14T07:57:44.115Z,8.10
2018-07-14T08:00:13.439Z,8.20
2018-07-14T08:02:42.759Z,7.90
2018-07-14T08:05:12.011Z,7.03
2018-07-14T08:07:41.230Z,7.00
2018-07-14T08:10:10.540Z,6.60
2018-07-14T08:12:39.807Z,7.30
2018-07-14T08:15:09.131Z,6.80
2018-07-14T08:17:38.602Z,7.10
2018-07-14T08:20:07.871Z,6.77
2018-07-14T08:22:37.213Z,6.83
2018-07-14T08:25:06.579Z,7.07
2018-07-14T08:27:35.851Z,6.50
2018-07-14T08:30:04.998Z,6.90
2018-07-14T08:32:34.332Z,7.60
2018-07-14T08:35:03.708Z,7.53
2018-07-14T08:37:48.601Z,7.07
2018-07-14T08:40:17.908Z,7.30
2018-07-14T08:42:47.102Z,6.70
2018-07-14T08:45:15.779Z,6.37
2018-07-14T08:47:45.112Z,6.30
2018-07-14T08:50:14.353Z,6.93
2018-07-14T08:52:43.658Z,6.27
2018-07-14T08:55:12.942Z,5.93
2018-07-14T08:57:42.127Z,5.27
2018-07-14T09:00:11.367Z,6.17
2018-07-14T09:02:40.134Z,6.83
2018-07-14T09:05:09.409Z,7.37
2018-07-14T09:07:39.591Z,5.83
2018-07-14T09:10:08.831Z,5.53
2018-07-14T09:12:38.084Z,5.77
2018-07-14T09:15:07.398Z,5.70
2018-07-14T09:17:36.707Z,6.73
2018-07-14T09:20:05.991Z,6.83
2018-07-14T09:22:35.182Z,6.13
2018-07-14T09:25:04.493Z,6.60
2018-07-14T09:27:33.695Z,6.97
2018-07-14T09:30:02.928Z,6.47
2018-07-14T09:32:33.090Z,6.37
2018-07-14T09:35:02.270Z,7.37
2018-07-14T09:37:30.961Z,5.80
2018-07-14T09:40:00.132Z,6.27
2018-07-14T09:42:29.331Z,5.50
2018-07-14T09:44:59.284Z,5.07
2018-07-14T09:47:28.764Z,5.93
2018-07-14T09:49:57.970Z,5.47
2018-07-14T09:52:27.267Z,5.00
2018-07-14T09:54:56.531Z,5.73
2018-07-14T09:57:25.772Z,4.63
2018-07-14T09:59:55.072Z,4.83
2018-07-14T10:02:24.315Z,5.10
2018-07-14T10:04:53.567Z,4.53
2018-07-14T10:07:23.712Z,4.40
2018-07-14T10:09:52.963Z,4.60
2018-07-14T10:12:22.173Z,4.43
2018-07-14T10:14:51.431Z,5.37
2018-07-14T10:17:20.725Z,5.53
2018-07-14T10:19:49.893Z,5.17
2018-07-14T10:22:19.136Z,5.00
2018-07-14T10:24:48.364Z,4.60
2018-07-14T10:27:17.594Z,4.73
2018-07-14T10:29:46.875Z,4.60
2018-07-14T10:32:16.079Z,4.60
2018-07-14T10:34:44.736Z,4.40
2018-07-14T10:37:14.007Z,4.57
2018-07-14T10:39:43.295Z,4.57
2018-07-14T10:42:12.563Z,4.90
2018-07-14T10:44:41.815Z,4.57
2018-07-14T10:47:11.037Z,4.77
2018-07-14T10:49:40.270Z,4.40
2018-07-14T10:52:09.517Z,4.20
2018-07-14T10:54:38.655Z,4.07
2018-07-14T10:57:07.930Z,4.37
2018-07-14T10:59:37.188Z,4.70
2018-07-14T11:02:06.539Z,5.13
2018-07-14T11:04:36.487Z,4.40
2018-07-14T11:07:06.653Z,4.50
2018-07-14T11:09:35.959Z,4.50
2018-07-14T11:12:06.060Z,4.47
2018-07-14T11:14:35.271Z,6.23
2018-07-14T11:17:04.551Z,4.33
2018-07-14T11:19:33.802Z,4.43
2018-07-14T11:22:03.051Z,4.33
2018-07-14T11:24:32.998Z,4.17
2018-07-14T11:27:02.255Z,4.53
2018-07-14T11:29:31.528Z,4.40
2018-07-14T11:32:00.817Z,4.53
2018-07-14T11:34:29.945Z,4.17
2018-07-14T11:36:59.590Z,4.10
2018-07-14T11:39:28.803Z,4.10
2018-07-14T11:41:57.871Z,3.70
2018-07-14T11:44:26.929Z,3.43
2018-07-14T11:46:55.930Z,3.53
2018-07-14T11:49:24.954Z,3.70
2018-07-14T11:51:54.213Z,3.50
2018-07-14T11:54:23.681Z,3.47
2018-07-14T11:56:52.723Z,4.10
2018-07-14T11:59:21.810Z,3.60
2018-07-14T12:01:50.869Z,3.53
2018-07-14T12:04:20.126Z,3.43
2018-07-14T12:06:49.181Z,4.28
2018-07-14T12:09:17.893Z,4.08
2018-07-14T12:11:46.886Z,4.33
2018-07-14T12:14:16.069Z,4.17
2018-07-14T12:16:45.263Z,3.90
2018-07-14T12:19:14.471Z,4.40
2018-07-14T12:21:43.972Z,4.12
2018-07-14T12:24:13.255Z,4.10
2018-07-14T12:26:42.754Z,4.22
2018-07-14T12:29:11.980Z,4.40
2018-07-14T12:31:44.312Z,4.37
2018-07-14T12:34:13.549Z,4.17
2018-07-14T12:36:42.721Z,4.40
2018-07-14T12:39:11.957Z,4.05
2018-07-14T12:41:41.355Z,4.42
2018-07-14T12:44:11.667Z,4.28
2018-07-14T12:46:40.877Z,4.50
2018-07-14T12:49:10.129Z,4.67
2018-07-14T12:51:39.371Z,4.35
2018-07-14T12:54:08.582Z,4.12
2018-07-14T12:56:37.784Z,4.08
2018-07-14T12:59:07.415Z,3.72
2018-07-14T13:01:36.696Z,4.05
2018-07-14T13:04:06.251Z,4.45
2018-07-14T13:06:36.067Z,4.17
2018-07-14T13:09:05.828Z,3.92
2018-07-14T13:11:35.259Z,4.12
2018-07-14T13:14:04.582Z,4.03
2018-07-14T13:16:34.235Z,3.77
2018-07-14T13:19:03.598Z,4.00
2018-07-14T13:21:32.971Z,4.10
2018-07-14T13:24:02.346Z,3.58
2018-07-14T13:26:31.538Z,3.58
2018-07-14T13:29:00.919Z,3.55
2018-07-14T13:31:30.167Z,3.90
2018-07-14T13:33:59.408Z,4.20
2018-07-14T13:36:28.770Z,4.05
2018-07-14T13:38:58.012Z,3.75
2018-07-14T13:41:27.283Z,3.60
2018-07-14T13:43:56.047Z,3.47
2018-07-14T13:46:25.250Z,3.90
2018-07-14T13:48:54.480Z,3.40
2018-07-14T13:51:23.808Z,3.67
2018-07-14T13:53:53.023Z,3.60
2018-07-14T13:56:22.328Z,3.50
2018-07-14T13:58:51.633Z,3.35
2018-07-14T14:01:22.370Z,3.08
2018-07-14T14:03:54.847Z,3.25
2018-07-14T14:06:24.215Z,4.35
2018-07-14T14:08:53.611Z,3.22
2018-07-14T14:11:22.953Z,3.40
2018-07-14T14:13:52.358Z,3.87
2018-07-14T14:16:21.065Z,3.50
2018-07-14T14:18:50.278Z,3.37
2018-07-14T14:21:19.086Z,3.55
2018-07-14T14:23:48.378Z,3.40
2018-07-14T14:26:18.191Z,3.60
2018-07-14T14:28:47.927Z,3.52
2018-07-14T14:34:07.912Z,3.77
2018-07-14T14:36:37.228Z,3.40
2018-07-14T14:39:07.503Z,3.58
2018-07-14T14:41:36.793Z,3.50
2018-07-14T14:44:06.124Z,3.70
2018-07-14T14:46:35.429Z,3.47
2018-07-14T14:49:04.855Z,3.62
2018-07-14T14:51:34.416Z,4.28
2018-07-14T14:54:03.993Z,3.83
2018-07-14T14:56:34.561Z,3.67
2018-07-14T14:59:06.447Z,3.40
2018-07-14T15:01:37.869Z,3.50
2018-07-14T15:04:07.206Z,3.45
2018-07-14T15:06:36.620Z,4.67
2018-07-14T15:09:06.017Z,4.20
2018-07-14T15:11:35.428Z,4.00
2018-07-14T15:14:04.782Z,5.53
2018-07-14T15:16:34.329Z,5.15
2018-07-14T15:19:03.696Z,4.08
2018-07-14T15:21:33.386Z,4.03
2018-07-14T15:24:02.973Z,3.63
2018-07-14T15:26:35.448Z,3.50
2018-07-14T15:29:07.995Z,3.70
2018-07-14T15:31:43.550Z,3.62
2018-07-14T15:34:13.096Z,3.77
2018-07-14T15:36:42.401Z,3.65
2018-07-14T15:39:11.725Z,4.33
2018-07-14T15:41:41.146Z,4.20
2018-07-14T15:44:11.128Z,4.20
2018-07-14T15:46:41.429Z,4.40
2018-07-14T15:49:12.482Z,4.20
2018-07-14T15:51:41.996Z,4.10
2018-07-14T15:54:11.246Z,4.30
2018-07-14T15:56:40.447Z,4.00
2018-07-14T15:59:09.651Z,4.23
2018-07-14T16:01:38.876Z,4.30
2018-07-14T16:04:08.080Z,4.40
2018-07-14T16:06:37.439Z,3.93
2018-07-14T16:09:07.497Z,4.00
2018-07-14T16:11:38.543Z,4.27
2018-07-14T16:14:08.559Z,3.70
2018-07-14T16:16:38.081Z,3.17
2018-07-14T16:19:07.102Z,3.30
2018-07-14T16:21:36.303Z,3.10
2018-07-14T16:24:17.532Z,4.03
2018-07-14T16:26:46.806Z,4.40
2018-07-14T16:29:16.015Z,4.33
2018-07-14T16:31:46.571Z,4.40
2018-07-14T16:34:16.204Z,4.10
2018-07-14T16:36:45.464Z,3.73
2018-07-14T16:39:14.888Z,3.93
2018-07-14T16:41:44.256Z,4.27
2018-07-14T16:44:13.687Z,3.47
2018-07-14T16:46:43.019Z,3.80
2018-07-14T16:49:13.427Z,7.53
2018-07-14T16:51:42.713Z,5.03
2018-07-14T16:54:12.939Z,7.30
2018-07-14T16:56:42.278Z,4.40
2018-07-14T16:59:11.537Z,3.57
2018-07-14T17:01:44.425Z,3.70
2018-07-14T17:04:14.790Z,3.73
2018-07-14T17:06:46.040Z,3.80
2018-07-14T17:09:15.267Z,3.90
2018-07-14T17:11:44.460Z,3.70
2018-07-14T17:14:13.856Z,3.40
2018-07-14T17:16:42.995Z,3.20
2018-07-14T17:19:12.222Z,3.63
2018-07-14T17:21:41.423Z,3.67
2018-07-14T17:24:10.522Z,3.00
2018-07-14T17:26:39.790Z,3.70
2018-07-14T17:29:09.031Z,3.63
2018-07-14T17:31:38.323Z,3.33
2018-07-14T17:34:07.647Z,3.40
2018-07-14T17:36:36.927Z,3.70
2018-07-14T17:39:07.887Z,3.57
2018-07-14T17:41:37.163Z,3.27
2018-07-14T17:44:07.353Z,3.37
2018-07-14T17:46:36.609Z,3.80
2018-07-14T17:49:05.895Z,4.23
2018-07-14T17:51:35.187Z,3.40
2018-07-14T17:54:04.915Z,3.73
2018-07-14T17:56:34.842Z,3.97
2018-07-14T17:59:04.135Z,3.43
2018-07-14T18:01:33.350Z,4.27
2018-07-14T18:04:02.867Z,3.90
2018-07-14T18:06:32.066Z,4.33
2018-07-14T18:09:01.447Z,4.03
2018-07-14T18:11:30.665Z,4.27
2018-07-14T18:14:01.293Z,3.90
2018-07-14T18:16:30.624Z,4.17
2018-07-14T18:19:01.662Z,4.20
2018-07-14T18:21:31.052Z,4.30
2018-07-14T18:24:00.695Z,4.30
2018-07-14T18:26:30.076Z,3.93
2018-07-14T18:28:59.424Z,4.23
2018-07-14T18:31:28.883Z,4.30
2018-07-14T18:33:58.327Z,4.20
2018-07-14T18:36:27.891Z,4.50
2018-07-14T18:38:57.107Z,4.27
2018-07-14T18:41:26.287Z,4.27
2018-07-14T18:44:02.136Z,4.80
2018-07-14T18:46:31.403Z,4.50
2018-07-14T18:49:00.719Z,4.60
2018-07-14T18:51:30.347Z,4.70
2018-07-14T18:56:53.102Z,5.40
2018-07-14T18:59:22.359Z,4.73
2018-07-14T19:01:51.571Z,5.00
2018-07-14T19:04:21.167Z,5.10
2018-07-14T19:06:50.696Z,5.40
2018-07-14T19:09:19.503Z,5.23
2018-07-14T19:12:01.937Z,4.60
2018-07-14T19:14:34.343Z,4.60
2018-07-14T19:17:03.701Z,4.90
2018-07-14T19:19:33.199Z,5.10
2018-07-14T19:22:02.552Z,5.13
2018-07-14T19:24:32.017Z,4.90
2018-07-14T19:27:01.288Z,5.10
2018-07-14T19:29:30.806Z,4.90
2018-07-14T19:32:00.124Z,5.60
2018-07-14T19:34:28.933Z,5.83
2018-07-14T19:36:58.172Z,5.40
2018-07-14T19:39:27.425Z,5.40
2018-07-14T19:41:56.503Z,4.97
2018-07-14T19:44:25.770Z,5.50
2018-07-14T19:46:54.889Z,5.43
2018-07-14T19:49:24.175Z,5.00
2018-07-14T19:51:53.452Z,5.30
2018-07-14T19:54:22.704Z,6.00
2018-07-14T19:56:51.994Z,6.00
2018-07-14T19:59:21.236Z,5.37
2018-07-14T20:01:50.511Z,6.00
2018-07-14T20:04:19.759Z,7.20
2018-07-14T20:06:48.936Z,7.93
2018-07-14T20:09:19.263Z,7.63
2018-07-14T20:11:48.612Z,8.10
2018-07-14T20:14:18.044Z,7.10
2018-07-14T20:16:47.228Z,7.10
2018-07-14T20:19:16.659Z,7.67
2018-07-14T20:21:45.868Z,7.97
2018-07-14T20:24:15.143Z,7.60
2018-07-14T20:26:44.407Z,7.77
2018-07-14T20:29:13.700Z,7.70
2018-07-14T20:31:43.029Z,8.03
2018-07-14T20:34:11.895Z,8.10
2018-07-14T20:36:41.283Z,8.17
2018-07-14T20:39:10.742Z,7.87
2018-07-14T20:41:40.097Z,8.23
2018-07-14T20:44:09.526Z,8.67
2018-07-14T20:46:39.202Z,8.23
2018-07-14T20:49:08.499Z,8.03
2018-07-14T20:51:37.963Z,7.17
2018-07-14T20:54:07.328Z,7.53
2018-07-14T20:56:36.482Z,7.93
2018-07-14T20:59:06.344Z,7.90
2018-07-14T21:01:35.713Z,7.60
2018-07-14T21:04:06.009Z,7.53
2018-07-14T21:06:35.283Z,7.00
2018-07-14T21:09:04.899Z,7.83
2018-07-14T21:11:35.761Z,7.93
2018-07-14T21:14:05.296Z,7.47
2018-07-14T21:16:34.662Z,7.70
2018-07-14T21:19:04.315Z,7.47
2018-07-14T21:21:33.644Z,8.10
2018-07-14T21:24:03.185Z,7.53
2018-07-14T21:26:32.644Z,7.47
2018-07-14T21:29:01.939Z,7.80
2018-07-14T21:31:31.361Z,7.70
2018-07-14T21:34:00.108Z,7.40
2018-07-14T21:36:29.296Z,7.57
2018-07-14T21:38:58.512Z,7.83
2018-07-14T21:41:27.847Z,7.77
2018-07-14T21:43:57.103Z,7.60
2018-07-14T21:46:26.647Z,7.73
2018-07-14T21:48:56.196Z,8.10
2018-07-14T21:51:25.451Z,7.83
2018-07-14T21:53:54.650Z,8.03
2018-07-14T21:56:23.931Z,8.30
2018-07-14T21:58:53.354Z,8.00
2018-07-14T22:01:30.487Z,7.60
2018-07-14T22:04:00.464Z,7.70
2018-07-14T22:06:29.675Z,7.30
2018-07-14T22:08:58.883Z,7.97
2018-07-14T22:11:28.151Z,8.10
2018-07-14T22:13:57.395Z,8.23
2018-07-14T22:16:26.717Z,7.93
2018-07-14T22:18:56.975Z,7.73
2018-07-14T22:21:26.333Z,7.57
2018-07-14T22:23:55.543Z,8.50
2018-07-14T22:26:24.888Z,8.13
2018-07-14T22:28:54.058Z,8.43
2018-07-14T22:31:23.391Z,8.07
2018-07-14T22:33:52.583Z,8.10
2018-07-14T22:36:22.015Z,8.57
2018-07-14T22:38:51.239Z,7.83
2018-07-14T22:41:20.470Z,8.53
2018-07-14T22:43:49.871Z,8.53
2018-07-14T22:46:19.227Z,7.90
2018-07-14T22:48:48.500Z,8.03
2018-07-14T22:51:17.793Z,8.03
2018-07-14T22:53:46.982Z,8.17
2018-07-14T22:56:16.271Z,8.00
2018-07-14T22:58:45.476Z,7.57
2018-07-14T23:01:14.711Z,7.73
2018-07-14T23:03:43.931Z,7.77
2018-07-14T23:06:13.289Z,8.50
2018-07-14T23:08:43.162Z,8.50
2018-07-14T23:11:12.539Z,8.70
2018-07-14T23:13:41.779Z,8.70
2018-07-14T23:16:11.076Z,8.37
2018-07-14T23:18:40.321Z,8.47
2018-07-14T23:21:09.539Z,9.17
2018-07-14T23:23:38.811Z,8.20
2018-07-14T23:26:08.092Z,9.00
2018-07-14T23:28:38.860Z,8.77
2018-07-14T23:31:08.150Z,8.90
2018-07-14T23:33:37.352Z,9.40
2018-07-14T23:36:07.221Z,9.30
2018-07-14T23:38:36.576Z,9.30
2018-07-14T23:41:05.782Z,9.17
2018-07-14T23:43:35.170Z,9.13
2018-07-14T23:46:04.524Z,9.57
2018-07-14T23:48:33.838Z,9.40
2018-07-14T23:51:03.300Z,9.93
2018-07-14T23:53:34.420Z,8.80
2018-07-14T23:56:04.139Z,9.57
2018-07-14T23:58:33.480Z,10.73
